sensor_id;sensor_type;location;lat;lon;timestamp;temperature;humidity
36206;DHT22;22242;48.796;9.930;2022-11-18T00:00:45;7.80;99.90
36206;DHT22;22242;48.796;9.930;2022-11-18T00:03:12;7.80;99.90
36206;DHT22;22242;48.796;9.930;2022-11-18T00:05:39;7.80;99.90
36206;DHT22;22242;48.796;9.930;2022-11-18T00:08:06;7.80;99.90
36206;DHT22;22242;48.796;9.930;2022-11-18T00:10:36;7.80;99.90
36206;DHT22;22242;48.796;9.930;2022-11-18T00:13:03;7.80;99.90
36206;DHT22;22242;48.796;9.930;2022-11-18T00:15:47;7.80;99.90
36206;DHT22;22242;48.796;9.930;2022-11-18T00:18:14;7.80;99.90
36206;DHT22;22242;48.796;9.930;2022-11-18T00:20:41;7.80;99.90
36206;DHT22;22242;48.796;9.930;2022-11-18T00:23:08;7.80;99.90
36206;DHT22;22242;48.796;9.930;2022-11-18T00:25:36;7.80;99.90
36206;DHT22;22242;48.796;9.930;2022-11-18T00:28:03;7.70;99.90
36206;DHT22;22242;48.796;9.930;2022-11-18T00:30:30;7.60;99.90
36206;DHT22;22242;48.796;9.930;2022-11-18T00:32:57;7.50;99.90
36206;DHT22;22242;48.796;9.930;2022-11-18T00:35:23;7.50;99.90
36206;DHT22;22242;48.796;9.930;2022-11-18T00:37:50;7.40;99.90
36206;DHT22;22242;48.796;9.930;2022-11-18T00:40:17;7.30;99.90
36206;DHT22;22242;48.796;9.930;2022-11-18T00:42:46;7.40;99.90
36206;DHT22;22242;48.796;9.930;2022-11-18T00:45:18;7.40;99.90
36206;DHT22;22242;48.796;9.930;2022-11-18T00:47:46;7.40;99.90
36206;DHT22;22242;48.796;9.930;2022-11-18T00:50:13;7.40;99.90
36206;DHT22;22242;48.796;9.930;2022-11-18T00:52:40;7.50;99.90
36206;DHT22;22242;48.796;9.930;2022-11-18T00:55:08;7.60;99.90
36206;DHT22;22242;48.796;9.930;2022-11-18T00:57:35;7.60;99.90
36206;DHT22;22242;48.796;9.930;2022-11-18T01:00:04;7.60;99.90
36206;DHT22;22242;48.796;9.930;2022-11-18T01:02:31;7.70;99.90
36206;DHT22;22242;48.796;9.930;2022-11-18T01:04:57;7.60;99.90
36206;DHT22;22242;48.796;9.930;2022-11-18T01:07:24;7.60;99.90
36206;DHT22;22242;48.796;9.930;2022-11-18T01:09:51;7.50;99.90
36206;DHT22;22242;48.796;9.930;2022-11-18T01:12:18;7.40;99.90
36206;DHT22;22242;48.796;9.930;2022-11-18T01:15:05;7.40;99.90
36206;DHT22;22242;48.796;9.930;2022-11-18T01:17:32;7.40;99.90
36206;DHT22;22242;48.796;9.930;2022-11-18T01:19:59;7.40;99.90
36206;DHT22;22242;48.796;9.930;2022-11-18T01:22:26;7.50;99.90
36206;DHT22;22242;48.796;9.930;2022-11-18T01:24:53;7.50;99.90
36206;DHT22;22242;48.796;9.930;2022-11-18T01:27:20;7.50;99.90
36206;DHT22;22242;48.796;9.930;2022-11-18T01:29:46;7.50;99.90
36206;DHT22;22242;48.796;9.930;2022-11-18T01:32:15;7.50;99.90
36206;DHT22;22242;48.796;9.930;2022-11-18T01:34:42;7.50;99.90
36206;DHT22;22242;48.796;9.930;2022-11-18T01:37:09;7.50;99.90
36206;DHT22;22242;48.796;9.930;2022-11-18T01:39:36;7.60;99.90
36206;DHT22;22242;48.796;9.930;2022-11-18T01:42:03;7.60;99.90
36206;DHT22;22242;48.796;9.930;2022-11-18T01:44:56;7.50;99.90
36206;DHT22;22242;48.796;9.930;2022-11-18T01:47:28;7.50;99.90
36206;DHT22;22242;48.796;9.930;2022-11-18T01:49:58;7.60;99.90
36206;DHT22;22242;48.796;9.930;2022-11-18T01:52:26;7.60;99.90
36206;DHT22;22242;48.796;9.930;2022-11-18T01:54:56;7.50;99.90
36206;DHT22;22242;48.796;9.930;2022-11-18T01:57:25;7.50;99.90
36206;DHT22;22242;48.796;9.930;2022-11-18T01:59:56;7.50;99.90
36206;DHT22;22242;48.796;9.930;2022-11-18T02:02:26;7.50;99.90
36206;DHT22;22242;48.796;9.930;2022-11-18T02:04:54;7.40;99.90
36206;DHT22;22242;48.796;9.930;2022-11-18T02:07:22;7.50;99.90
36206;DHT22;22242;48.796;9.930;2022-11-18T02:09:50;7.40;99.90
36206;DHT22;22242;48.796;9.930;2022-11-18T02:12:18;7.50;99.90
36206;DHT22;22242;48.796;9.930;2022-11-18T02:14:45;7.50;99.90
36206;DHT22;22242;48.796;9.930;2022-11-18T02:17:23;7.50;99.90
36206;DHT22;22242;48.796;9.930;2022-11-18T02:20:21;7.50;99.90
36206;DHT22;22242;48.796;9.930;2022-11-18T02:26:03;7.50;99.90
36206;DHT22;22242;48.796;9.930;2022-11-18T02:28:36;7.50;99.90
36206;DHT22;22242;48.796;9.930;2022-11-18T02:31:09;7.40;99.90
36206;DHT22;22242;48.796;9.930;2022-11-18T02:33:48;7.40;99.90
36206;DHT22;22242;48.796;9.930;2022-11-18T02:36:19;7.50;99.90
36206;DHT22;22242;48.796;9.930;2022-11-18T02:38:52;7.60;99.90
36206;DHT22;22242;48.796;9.930;2022-11-18T02:41:24;7.50;99.90
36206;DHT22;22242;48.796;9.930;2022-11-18T02:43:53;7.60;99.90
36206;DHT22;22242;48.796;9.930;2022-11-18T02:46:25;7.60;99.90
36206;DHT22;22242;48.796;9.930;2022-11-18T02:48:53;7.50;99.90
36206;DHT22;22242;48.796;9.930;2022-11-18T02:51:23;7.50;99.90
36206;DHT22;22242;48.796;9.930;2022-11-18T02:53:52;7.50;99.90
36206;DHT22;22242;48.796;9.930;2022-11-18T02:56:20;7.50;99.90
36206;DHT22;22242;48.796;9.930;2022-11-18T02:58:48;7.50;99.90
36206;DHT22;22242;48.796;9.930;2022-11-18T03:01:17;7.50;99.90
36206;DHT22;22242;48.796;9.930;2022-11-18T03:03:47;7.50;99.90
36206;DHT22;22242;48.796;9.930;2022-11-18T03:06:26;7.50;99.90
36206;DHT22;22242;48.796;9.930;2022-11-18T03:09:00;7.50;99.90
36206;DHT22;22242;48.796;9.930;2022-11-18T03:11:30;7.60;99.90
36206;DHT22;22242;48.796;9.930;2022-11-18T03:14:07;7.60;99.90
36206;DHT22;22242;48.796;9.930;2022-11-18T03:16:37;7.50;99.90
36206;DHT22;22242;48.796;9.930;2022-11-18T03:19:12;7.50;99.90
36206;DHT22;22242;48.796;9.930;2022-11-18T03:21:46;7.40;99.90
36206;DHT22;22242;48.796;9.930;2022-11-18T03:24:20;7.50;99.90
36206;DHT22;22242;48.796;9.930;2022-11-18T03:26:51;7.50;99.90
36206;DHT22;22242;48.796;9.930;2022-11-18T03:29:22;7.50;99.90
36206;DHT22;22242;48.796;9.930;2022-11-18T03:31:54;7.50;99.90
36206;DHT22;22242;48.796;9.930;2022-11-18T03:34:29;7.40;99.90
36206;DHT22;22242;48.796;9.930;2022-11-18T03:37:01;7.40;99.90
36206;DHT22;22242;48.796;9.930;2022-11-18T03:39:31;7.40;99.90
36206;DHT22;22242;48.796;9.930;2022-11-18T03:42:04;7.40;99.90
36206;DHT22;22242;48.796;9.930;2022-11-18T03:44:35;7.50;99.90
36206;DHT22;22242;48.796;9.930;2022-11-18T03:47:07;7.50;99.90
36206;DHT22;22242;48.796;9.930;2022-11-18T03:49:42;7.50;99.90
36206;DHT22;22242;48.796;9.930;2022-11-18T03:52:14;7.50;99.90
36206;DHT22;22242;48.796;9.930;2022-11-18T03:54:44;7.50;99.90
36206;DHT22;22242;48.796;9.930;2022-11-18T03:57:15;7.50;99.90
36206;DHT22;22242;48.796;9.930;2022-11-18T03:59:48;7.40;99.90
36206;DHT22;22242;48.796;9.930;2022-11-18T04:02:18;7.40;99.90
36206;DHT22;22242;48.796;9.930;2022-11-18T04:04:50;7.50;99.90
36206;DHT22;22242;48.796;9.930;2022-11-18T04:07:22;7.40;99.90
36206;DHT22;22242;48.796;9.930;2022-11-18T04:09:53;7.40;99.90
36206;DHT22;22242;48.796;9.930;2022-11-18T04:12:22;7.40;99.90
36206;DHT22;22242;48.796;9.930;2022-11-18T04:14:49;7.20;99.90
36206;DHT22;22242;48.796;9.930;2022-11-18T04:17:22;7.30;99.90
36206;DHT22;22242;48.796;9.930;2022-11-18T04:19:51;7.30;99.90
36206;DHT22;22242;48.796;9.930;2022-11-18T04:22:18;7.30;99.90
36206;DHT22;22242;48.796;9.930;2022-11-18T04:24:45;7.40;99.90
36206;DHT22;22242;48.796;9.930;2022-11-18T04:27:12;7.40;99.90
36206;DHT22;22242;48.796;9.930;2022-11-18T04:29:38;7.30;99.90
36206;DHT22;22242;48.796;9.930;2022-11-18T04:32:05;7.30;99.90
36206;DHT22;22242;48.796;9.930;2022-11-18T04:34:32;7.30;99.90
36206;DHT22;22242;48.796;9.930;2022-11-18T04:37:01;7.30;99.90
36206;DHT22;22242;48.796;9.930;2022-11-18T04:39:28;7.30;99.90
36206;DHT22;22242;48.796;9.930;2022-11-18T04:41:54;7.20;99.90
36206;DHT22;22242;48.796;9.930;2022-11-18T04:44:22;7.30;99.90
36206;DHT22;22242;48.796;9.930;2022-11-18T04:46:49;7.10;99.90
36206;DHT22;22242;48.796;9.930;2022-11-18T04:49:16;7.10;99.90
36206;DHT22;22242;48.796;9.930;2022-11-18T04:51:43;7.10;99.90
36206;DHT22;22242;48.796;9.930;2022-11-18T04:54:12;7.10;99.90
36206;DHT22;22242;48.796;9.930;2022-11-18T04:56:40;7.00;99.90
36206;DHT22;22242;48.796;9.930;2022-11-18T04:59:07;7.00;99.90
36206;DHT22;22242;48.796;9.930;2022-11-18T05:01:34;7.00;99.90
36206;DHT22;22242;48.796;9.930;2022-11-18T05:04:02;7.00;99.90
36206;DHT22;22242;48.796;9.930;2022-11-18T05:06:29;6.90;99.90
36206;DHT22;22242;48.796;9.930;2022-11-18T05:08:56;6.90;99.90
36206;DHT22;22242;48.796;9.930;2022-11-18T05:11:25;6.90;99.90
36206;DHT22;22242;48.796;9.930;2022-11-18T05:14:10;6.80;99.90
36206;DHT22;22242;48.796;9.930;2022-11-18T05:16:37;6.80;99.90
36206;DHT22;22242;48.796;9.930;2022-11-18T05:19:05;6.80;99.90
36206;DHT22;22242;48.796;9.930;2022-11-18T05:21:32;6.80;99.90
36206;DHT22;22242;48.796;9.930;2022-11-18T05:23:59;6.80;99.90
36206;DHT22;22242;48.796;9.930;2022-11-18T05:26:27;6.80;99.90
36206;DHT22;22242;48.796;9.930;2022-11-18T05:28:54;6.80;99.90
36206;DHT22;22242;48.796;9.930;2022-11-18T05:31:22;6.80;99.90
36206;DHT22;22242;48.796;9.930;2022-11-18T05:33:49;6.70;99.90
36206;DHT22;22242;48.796;9.930;2022-11-18T05:36:18;6.60;99.90
36206;DHT22;22242;48.796;9.930;2022-11-18T05:38:45;6.70;99.90
36206;DHT22;22242;48.796;9.930;2022-11-18T05:41:13;6.70;99.90
36206;DHT22;22242;48.796;9.930;2022-11-18T05:44:02;6.60;99.90
36206;DHT22;22242;48.796;9.930;2022-11-18T05:46:28;6.60;99.90
36206;DHT22;22242;48.796;9.930;2022-11-18T05:48:56;6.70;99.90
36206;DHT22;22242;48.796;9.930;2022-11-18T05:51:23;6.60;99.90
36206;DHT22;22242;48.796;9.930;2022-11-18T05:53:51;6.60;99.90
36206;DHT22;22242;48.796;9.930;2022-11-18T05:56:21;6.60;99.90
36206;DHT22;22242;48.796;9.930;2022-11-18T05:58:49;6.60;99.90
36206;DHT22;22242;48.796;9.930;2022-11-18T06:01:20;6.60;99.90
36206;DHT22;22242;48.796;9.930;2022-11-18T06:03:48;6.50;99.90
36206;DHT22;22242;48.796;9.930;2022-11-18T06:06:16;6.60;99.90
36206;DHT22;22242;48.796;9.930;2022-11-18T06:08:49;6.60;99.90
36206;DHT22;22242;48.796;9.930;2022-11-18T06:11:17;6.60;99.90
36206;DHT22;22242;48.796;9.930;2022-11-18T06:13:47;6.50;99.90
36206;DHT22;22242;48.796;9.930;2022-11-18T06:16:18;6.60;99.90
36206;DHT22;22242;48.796;9.930;2022-11-18T06:18:46;6.50;99.90
36206;DHT22;22242;48.796;9.930;2022-11-18T06:21:13;6.50;99.90
36206;DHT22;22242;48.796;9.930;2022-11-18T06:23:41;6.40;99.90
36206;DHT22;22242;48.796;9.930;2022-11-18T06:26:08;6.50;99.90
36206;DHT22;22242;48.796;9.930;2022-11-18T06:28:37;6.50;99.90
36206;DHT22;22242;48.796;9.930;2022-11-18T06:31:05;6.50;99.90
36206;DHT22;22242;48.796;9.930;2022-11-18T06:33:34;6.40;99.90
36206;DHT22;22242;48.796;9.930;2022-11-18T06:36:01;6.40;99.90
36206;DHT22;22242;48.796;9.930;2022-11-18T06:38:28;6.40;99.90
36206;DHT22;22242;48.796;9.930;2022-11-18T06:40:58;6.20;99.90
36206;DHT22;22242;48.796;9.930;2022-11-18T06:43:25;6.40;99.90
36206;DHT22;22242;48.796;9.930;2022-11-18T06:46:07;6.30;99.90
36206;DHT22;22242;48.796;9.930;2022-11-18T06:48:53;6.30;99.90
36206;DHT22;22242;48.796;9.930;2022-11-18T06:51:20;6.30;99.90
36206;DHT22;22242;48.796;9.930;2022-11-18T06:53:47;6.40;99.90
36206;DHT22;22242;48.796;9.930;2022-11-18T06:56:15;6.40;99.90
36206;DHT22;22242;48.796;9.930;2022-11-18T06:58:43;6.30;99.90
36206;DHT22;22242;48.796;9.930;2022-11-18T07:01:11;6.30;99.90
36206;DHT22;22242;48.796;9.930;2022-11-18T07:03:39;6.40;99.90
36206;DHT22;22242;48.796;9.930;2022-11-18T07:06:08;6.30;99.90
36206;DHT22;22242;48.796;9.930;2022-11-18T07:08:35;6.30;99.90
36206;DHT22;22242;48.796;9.930;2022-11-18T07:11:03;6.40;99.90
36206;DHT22;22242;48.796;9.930;2022-11-18T07:13:31;6.30;99.90
36206;DHT22;22242;48.796;9.930;2022-11-18T07:16:02;6.40;99.90
36206;DHT22;22242;48.796;9.930;2022-11-18T07:18:30;6.40;99.90
36206;DHT22;22242;48.796;9.930;2022-11-18T07:21:00;6.40;99.90
36206;DHT22;22242;48.796;9.930;2022-11-18T07:23:29;6.50;99.90
36206;DHT22;22242;48.796;9.930;2022-11-18T07:25:56;6.50;99.90
36206;DHT22;22242;48.796;9.930;2022-11-18T07:28:23;6.50;99.90
36206;DHT22;22242;48.796;9.930;2022-11-18T07:30:50;6.60;99.90
36206;DHT22;22242;48.796;9.930;2022-11-18T07:33:17;6.70;99.90
36206;DHT22;22242;48.796;9.930;2022-11-18T07:35:44;6.70;99.90
36206;DHT22;22242;48.796;9.930;2022-11-18T07:38:11;6.80;99.90
36206;DHT22;22242;48.796;9.930;2022-11-18T07:40:39;6.80;99.90
36206;DHT22;22242;48.796;9.930;2022-11-18T07:43:06;6.90;99.90
36206;DHT22;22242;48.796;9.930;2022-11-18T07:45:33;6.90;99.90
36206;DHT22;22242;48.796;9.930;2022-11-18T07:48:00;7.00;99.90
36206;DHT22;22242;48.796;9.930;2022-11-18T07:50:27;7.00;99.90
36206;DHT22;22242;48.796;9.930;2022-11-18T07:52:55;7.00;99.90
36206;DHT22;22242;48.796;9.930;2022-11-18T07:55:22;7.10;99.90
36206;DHT22;22242;48.796;9.930;2022-11-18T07:57:50;7.10;99.90
36206;DHT22;22242;48.796;9.930;2022-11-18T08:00:17;7.10;99.90
36206;DHT22;22242;48.796;9.930;2022-11-18T08:02:48;7.10;99.90
36206;DHT22;22242;48.796;9.930;2022-11-18T08:05:15;7.10;99.90
36206;DHT22;22242;48.796;9.930;2022-11-18T08:07:42;7.00;99.90
36206;DHT22;22242;48.796;9.930;2022-11-18T08:10:09;7.10;99.90
36206;DHT22;22242;48.796;9.930;2022-11-18T08:12:36;7.10;99.90
36206;DHT22;22242;48.796;9.930;2022-11-18T08:15:05;7.10;99.90
36206;DHT22;22242;48.796;9.930;2022-11-18T08:17:32;7.10;99.90
36206;DHT22;22242;48.796;9.930;2022-11-18T08:19:59;7.00;99.90
36206;DHT22;22242;48.796;9.930;2022-11-18T08:22:26;7.10;99.90
36206;DHT22;22242;48.796;9.930;2022-11-18T08:24:53;7.00;99.90
36206;DHT22;22242;48.796;9.930;2022-11-18T08:27:20;7.00;99.90
36206;DHT22;22242;48.796;9.930;2022-11-18T08:29:47;7.00;99.90
36206;DHT22;22242;48.796;9.930;2022-11-18T08:32:15;7.00;99.90
36206;DHT22;22242;48.796;9.930;2022-11-18T08:34:42;7.00;99.90
36206;DHT22;22242;48.796;9.930;2022-11-18T08:37:09;7.10;99.90
36206;DHT22;22242;48.796;9.930;2022-11-18T08:39:36;7.10;99.90
36206;DHT22;22242;48.796;9.930;2022-11-18T08:42:03;7.20;99.90
36206;DHT22;22242;48.796;9.930;2022-11-18T08:44:29;7.30;99.90
36206;DHT22;22242;48.796;9.930;2022-11-18T08:46:59;7.30;99.90
36206;DHT22;22242;48.796;9.930;2022-11-18T08:49:27;7.20;99.90
36206;DHT22;22242;48.796;9.930;2022-11-18T08:51:54;7.10;99.90
36206;DHT22;22242;48.796;9.930;2022-11-18T08:54:21;7.10;99.90
36206;DHT22;22242;48.796;9.930;2022-11-18T08:56:48;7.10;99.90
36206;DHT22;22242;48.796;9.930;2022-11-18T08:59:15;7.30;99.90
36206;DHT22;22242;48.796;9.930;2022-11-18T09:01:42;7.40;99.90
36206;DHT22;22242;48.796;9.930;2022-11-18T09:04:09;7.40;99.90
36206;DHT22;22242;48.796;9.930;2022-11-18T09:06:38;7.50;99.90
36206;DHT22;22242;48.796;9.930;2022-11-18T09:09:05;7.50;99.90
36206;DHT22;22242;48.796;9.930;2022-11-18T09:11:33;7.40;99.90
36206;DHT22;22242;48.796;9.930;2022-11-18T09:14:00;7.40;99.90
36206;DHT22;22242;48.796;9.930;2022-11-18T09:16:29;7.40;99.90
36206;DHT22;22242;48.796;9.930;2022-11-18T09:18:57;7.40;99.90
36206;DHT22;22242;48.796;9.930;2022-11-18T09:21:24;7.40;99.90
36206;DHT22;22242;48.796;9.930;2022-11-18T09:23:53;7.30;99.90
36206;DHT22;22242;48.796;9.930;2022-11-18T09:26:21;7.30;99.90
36206;DHT22;22242;48.796;9.930;2022-11-18T09:28:48;7.20;99.90
36206;DHT22;22242;48.796;9.930;2022-11-18T09:31:16;7.10;99.90
36206;DHT22;22242;48.796;9.930;2022-11-18T09:33:43;7.00;99.90
36206;DHT22;22242;48.796;9.930;2022-11-18T09:36:12;7.00;99.90
36206;DHT22;22242;48.796;9.930;2022-11-18T09:38:39;7.10;99.90
36206;DHT22;22242;48.796;9.930;2022-11-18T09:41:23;7.00;99.90
36206;DHT22;22242;48.796;9.930;2022-11-18T09:44:02;7.00;99.90
36206;DHT22;22242;48.796;9.930;2022-11-18T09:46:38;7.00;99.90
36206;DHT22;22242;48.796;9.930;2022-11-18T09:49:10;7.00;99.90
36206;DHT22;22242;48.796;9.930;2022-11-18T09:51:41;7.00;99.90
36206;DHT22;22242;48.796;9.930;2022-11-18T09:54:10;6.90;99.90
36206;DHT22;22242;48.796;9.930;2022-11-18T09:56:40;7.10;99.90
36206;DHT22;22242;48.796;9.930;2022-11-18T09:59:10;7.20;99.90
36206;DHT22;22242;48.796;9.930;2022-11-18T10:01:38;7.30;99.90
36206;DHT22;22242;48.796;9.930;2022-11-18T10:04:10;7.30;99.90
36206;DHT22;22242;48.796;9.930;2022-11-18T10:06:37;7.30;99.90
36206;DHT22;22242;48.796;9.930;2022-11-18T10:09:21;7.20;99.90
36206;DHT22;22242;48.796;9.930;2022-11-18T10:14:56;7.30;99.90
36206;DHT22;22242;48.796;9.930;2022-11-18T10:17:38;7.40;99.90
36206;DHT22;22242;48.796;9.930;2022-11-18T10:20:20;7.50;99.90
36206;DHT22;22242;48.796;9.930;2022-11-18T10:22:51;7.50;99.90
36206;DHT22;22242;48.796;9.930;2022-11-18T10:25:20;7.40;99.90
36206;DHT22;22242;48.796;9.930;2022-11-18T10:27:49;7.30;99.90
36206;DHT22;22242;48.796;9.930;2022-11-18T10:30:18;7.30;99.90
36206;DHT22;22242;48.796;9.930;2022-11-18T10:32:53;7.30;99.90
36206;DHT22;22242;48.796;9.930;2022-11-18T10:35:25;7.20;99.90
36206;DHT22;22242;48.796;9.930;2022-11-18T10:38:04;7.20;99.90
36206;DHT22;22242;48.796;9.930;2022-11-18T10:40:33;7.30;99.90
36206;DHT22;22242;48.796;9.930;2022-11-18T10:43:01;7.40;99.90
36206;DHT22;22242;48.796;9.930;2022-11-18T10:45:30;7.40;99.90
36206;DHT22;22242;48.796;9.930;2022-11-18T10:48:05;7.40;99.90
36206;DHT22;22242;48.796;9.930;2022-11-18T10:50:34;7.40;99.90
36206;DHT22;22242;48.796;9.930;2022-11-18T10:53:02;7.50;99.90
36206;DHT22;22242;48.796;9.930;2022-11-18T10:55:29;7.60;99.90
36206;DHT22;22242;48.796;9.930;2022-11-18T10:58:01;7.80;99.90
36206;DHT22;22242;48.796;9.930;2022-11-18T11:00:43;7.70;99.90
36206;DHT22;22242;48.796;9.930;2022-11-18T11:03:27;7.60;99.90
36206;DHT22;22242;48.796;9.930;2022-11-18T11:06:14;7.70;99.90
36206;DHT22;22242;48.796;9.930;2022-11-18T11:08:47;7.70;99.90
36206;DHT22;22242;48.796;9.930;2022-11-18T11:11:21;7.80;99.90
36206;DHT22;22242;48.796;9.930;2022-11-18T11:13:54;7.90;99.90
36206;DHT22;22242;48.796;9.930;2022-11-18T11:16:25;8.00;99.90
36206;DHT22;22242;48.796;9.930;2022-11-18T11:18:55;8.10;99.90
36206;DHT22;22242;48.796;9.930;2022-11-18T11:21:25;7.90;99.90
36206;DHT22;22242;48.796;9.930;2022-11-18T11:23:53;8.00;99.90
36206;DHT22;22242;48.796;9.930;2022-11-18T11:26:27;7.90;99.90
36206;DHT22;22242;48.796;9.930;2022-11-18T11:29:03;7.80;99.90
36206;DHT22;22242;48.796;9.930;2022-11-18T11:31:38;7.80;99.90
36206;DHT22;22242;48.796;9.930;2022-11-18T11:34:16;7.60;99.90
36206;DHT22;22242;48.796;9.930;2022-11-18T11:36:49;7.60;99.90
36206;DHT22;22242;48.796;9.930;2022-11-18T11:39:39;7.70;99.90
36206;DHT22;22242;48.796;9.930;2022-11-18T11:42:17;7.70;99.90
36206;DHT22;22242;48.796;9.930;2022-11-18T11:44:58;7.60;99.90
36206;DHT22;22242;48.796;9.930;2022-11-18T11:47:34;7.60;99.90
36206;DHT22;22242;48.796;9.930;2022-11-18T11:50:15;7.70;99.90
36206;DHT22;22242;48.796;9.930;2022-11-18T11:52:52;7.70;99.90
36206;DHT22;22242;48.796;9.930;2022-11-18T11:55:41;7.80;99.90
36206;DHT22;22242;48.796;9.930;2022-11-18T11:58:22;7.80;99.90
36206;DHT22;22242;48.796;9.930;2022-11-18T12:00:59;7.70;99.90
36206;DHT22;22242;48.796;9.930;2022-11-18T12:03:41;7.70;99.90
36206;DHT22;22242;48.796;9.930;2022-11-18T12:06:10;7.90;99.90
36206;DHT22;22242;48.796;9.930;2022-11-18T12:08:42;8.00;99.90
36206;DHT22;22242;48.796;9.930;2022-11-18T12:11:17;8.00;99.90
36206;DHT22;22242;48.796;9.930;2022-11-18T12:13:51;8.00;99.90
36206;DHT22;22242;48.796;9.930;2022-11-18T12:16:24;8.10;99.90
36206;DHT22;22242;48.796;9.930;2022-11-18T12:18:57;8.00;99.90
36206;DHT22;22242;48.796;9.930;2022-11-18T12:21:52;8.00;99.90
36206;DHT22;22242;48.796;9.930;2022-11-18T12:24:43;8.00;99.90
36206;DHT22;22242;48.796;9.930;2022-11-18T12:27:12;8.10;99.90
36206;DHT22;22242;48.796;9.930;2022-11-18T12:32:28;8.00;99.90
36206;DHT22;22242;48.796;9.930;2022-11-18T12:34:58;7.90;99.90
36206;DHT22;22242;48.796;9.930;2022-11-18T12:37:45;8.00;99.90
36206;DHT22;22242;48.796;9.930;2022-11-18T12:40:41;8.10;99.90
36206;DHT22;22242;48.796;9.930;2022-11-18T12:46:48;8.10;99.90
36206;DHT22;22242;48.796;9.930;2022-11-18T12:52:46;8.10;99.90
36206;DHT22;22242;48.796;9.930;2022-11-18T12:55:16;8.10;99.90
36206;DHT22;22242;48.796;9.930;2022-11-18T12:57:44;8.10;99.90
36206;DHT22;22242;48.796;9.930;2022-11-18T13:00:26;8.00;99.90
36206;DHT22;22242;48.796;9.930;2022-11-18T13:02:56;7.90;99.90
36206;DHT22;22242;48.796;9.930;2022-11-18T13:05:24;7.90;99.90
36206;DHT22;22242;48.796;9.930;2022-11-18T13:07:55;8.10;99.90
36206;DHT22;22242;48.796;9.930;2022-11-18T13:10:47;8.20;99.90
36206;DHT22;22242;48.796;9.930;2022-11-18T13:13:24;8.30;99.90
36206;DHT22;22242;48.796;9.930;2022-11-18T13:15:53;8.40;99.90
36206;DHT22;22242;48.796;9.930;2022-11-18T13:18:48;8.40;99.90
36206;DHT22;22242;48.796;9.930;2022-11-18T13:21:23;8.50;99.90
36206;DHT22;22242;48.796;9.930;2022-11-18T13:24:12;8.50;99.90
36206;DHT22;22242;48.796;9.930;2022-11-18T13:26:40;8.30;99.90
36206;DHT22;22242;48.796;9.930;2022-11-18T13:29:26;8.00;99.90
36206;DHT22;22242;48.796;9.930;2022-11-18T13:32:03;8.00;99.90
36206;DHT22;22242;48.796;9.930;2022-11-18T13:34:45;8.00;99.90
36206;DHT22;22242;48.796;9.930;2022-11-18T13:37:16;8.00;99.90
36206;DHT22;22242;48.796;9.930;2022-11-18T13:39:46;8.00;99.90
36206;DHT22;22242;48.796;9.930;2022-11-18T13:42:18;8.00;99.90
36206;DHT22;22242;48.796;9.930;2022-11-18T13:44:51;8.00;99.90
36206;DHT22;22242;48.796;9.930;2022-11-18T13:47:27;8.00;99.90
36206;DHT22;22242;48.796;9.930;2022-11-18T13:50:02;7.90;99.90
36206;DHT22;22242;48.796;9.930;2022-11-18T13:52:33;7.90;99.90
36206;DHT22;22242;48.796;9.930;2022-11-18T13:55:05;7.90;99.90
36206;DHT22;22242;48.796;9.930;2022-11-18T13:57:33;7.90;99.90
36206;DHT22;22242;48.796;9.930;2022-11-18T14:00:05;7.90;99.90
36206;DHT22;22242;48.796;9.930;2022-11-18T14:02:38;7.90;99.90
36206;DHT22;22242;48.796;9.930;2022-11-18T14:05:16;7.90;99.90
36206;DHT22;22242;48.796;9.930;2022-11-18T14:08:01;7.90;99.90
36206;DHT22;22242;48.796;9.930;2022-11-18T14:10:33;7.90;99.90
36206;DHT22;22242;48.796;9.930;2022-11-18T14:13:16;7.90;99.90
36206;DHT22;22242;48.796;9.930;2022-11-18T14:15:43;7.90;99.90
36206;DHT22;22242;48.796;9.930;2022-11-18T14:18:18;7.80;99.90
36206;DHT22;22242;48.796;9.930;2022-11-18T14:20:50;7.80;99.90
36206;DHT22;22242;48.796;9.930;2022-11-18T14:23:21;7.70;99.90
36206;DHT22;22242;48.796;9.930;2022-11-18T14:25:52;7.50;99.90
36206;DHT22;22242;48.796;9.930;2022-11-18T14:28:22;7.50;99.90
36206;DHT22;22242;48.796;9.930;2022-11-18T14:31:02;7.40;99.90
36206;DHT22;22242;48.796;9.930;2022-11-18T14:33:33;7.40;99.90
36206;DHT22;22242;48.796;9.930;2022-11-18T14:36:02;7.40;99.90
36206;DHT22;22242;48.796;9.930;2022-11-18T14:38:40;7.30;99.90
36206;DHT22;22242;48.796;9.930;2022-11-18T14:41:12;7.30;99.90
36206;DHT22;22242;48.796;9.930;2022-11-18T14:43:39;7.30;99.90
36206;DHT22;22242;48.796;9.930;2022-11-18T14:46:14;7.40;99.90
36206;DHT22;22242;48.796;9.930;2022-11-18T14:48:42;7.40;99.90
36206;DHT22;22242;48.796;9.930;2022-11-18T14:51:11;7.40;99.90
36206;DHT22;22242;48.796;9.930;2022-11-18T14:53:39;7.40;99.90
36206;DHT22;22242;48.796;9.930;2022-11-18T14:56:12;7.50;99.90
36206;DHT22;22242;48.796;9.930;2022-11-18T14:58:40;7.50;99.90
36206;DHT22;22242;48.796;9.930;2022-11-18T15:01:09;7.50;99.90
36206;DHT22;22242;48.796;9.930;2022-11-18T15:03:36;7.40;99.90
36206;DHT22;22242;48.796;9.930;2022-11-18T15:06:05;7.40;99.90
36206;DHT22;22242;48.796;9.930;2022-11-18T15:08:36;7.30;99.90
36206;DHT22;22242;48.796;9.930;2022-11-18T15:11:03;7.30;99.90
36206;DHT22;22242;48.796;9.930;2022-11-18T15:13:31;7.30;99.90
36206;DHT22;22242;48.796;9.930;2022-11-18T15:15:58;7.30;99.90
36206;DHT22;22242;48.796;9.930;2022-11-18T15:18:24;7.40;99.90
36206;DHT22;22242;48.796;9.930;2022-11-18T15:20:51;7.30;99.90
36206;DHT22;22242;48.796;9.930;2022-11-18T15:23:18;7.30;99.90
36206;DHT22;22242;48.796;9.930;2022-11-18T15:25:45;7.40;99.90
36206;DHT22;22242;48.796;9.930;2022-11-18T15:28:12;7.30;99.90
36206;DHT22;22242;48.796;9.930;2022-11-18T15:30:40;7.30;99.90
36206;DHT22;22242;48.796;9.930;2022-11-18T15:33:07;7.30;99.90
36206;DHT22;22242;48.796;9.930;2022-11-18T15:35:34;7.30;99.90
36206;DHT22;22242;48.796;9.930;2022-11-18T15:38:01;7.30;99.90
36206;DHT22;22242;48.796;9.930;2022-11-18T15:40:27;7.30;99.90
36206;DHT22;22242;48.796;9.930;2022-11-18T15:42:55;7.30;99.90
36206;DHT22;22242;48.796;9.930;2022-11-18T15:45:21;7.40;99.90
36206;DHT22;22242;48.796;9.930;2022-11-18T15:47:51;7.40;99.90
36206;DHT22;22242;48.796;9.930;2022-11-18T15:50:18;7.40;99.90
36206;DHT22;22242;48.796;9.930;2022-11-18T15:52:45;7.30;99.90
36206;DHT22;22242;48.796;9.930;2022-11-18T15:55:12;7.40;99.90
36206;DHT22;22242;48.796;9.930;2022-11-18T15:57:39;7.30;99.90
36206;DHT22;22242;48.796;9.930;2022-11-18T16:00:07;7.30;99.90
36206;DHT22;22242;48.796;9.930;2022-11-18T16:02:38;7.40;99.90
36206;DHT22;22242;48.796;9.930;2022-11-18T16:05:06;7.40;99.90
36206;DHT22;22242;48.796;9.930;2022-11-18T16:07:33;7.30;99.90
36206;DHT22;22242;48.796;9.930;2022-11-18T16:10:00;7.20;99.90
36206;DHT22;22242;48.796;9.930;2022-11-18T16:12:45;7.30;99.90
36206;DHT22;22242;48.796;9.930;2022-11-18T16:15:12;7.20;99.90
36206;DHT22;22242;48.796;9.930;2022-11-18T16:17:56;7.10;99.90
36206;DHT22;22242;48.796;9.930;2022-11-18T16:20:25;7.20;99.90
36206;DHT22;22242;48.796;9.930;2022-11-18T16:22:53;7.20;99.90